Time;durP1;ratioP1;P1;durP2;ratioP2;P2;SDS_P1;SDS_P2;PMS_P1;PMS_P2;Temp;Humidity;BMP_temperature;BMP_pressure;BME280_temperature;BME280_humidity;BME280_pressure;Samples;Min_cycle;Max_cycle;Signal;HPM_P1;HPM_P2
2023/07/24 00:01:32;;;;;;;9.73;6.70;;;19.00;97.30;;;;;;5080604;28;20482;-62
2023/07/24 00:03:59;;;;;;;10.50;7.07;;;18.80;97.90;;;;;;5056979;28;20738;-62
2023/07/24 00:06:28;;;;;;;11.17;7.77;;;18.70;98.00;;;;;;5035534;28;20850;-62
2023/07/24 00:08:54;;;;;;;10.80;6.60;;;18.70;98.00;;;;;;5037054;28;20632;-62
2023/07/24 00:11:21;;;;;;;8.30;6.07;;;18.80;98.20;;;;;;5060990;28;20474;-62
2023/07/24 00:13:49;;;;;;;12.17;7.97;;;18.60;98.50;;;;;;5071712;28;20478;-62
2023/07/24 00:16:16;;;;;;;11.80;7.50;;;18.60;98.30;;;;;;5075971;28;20565;-62
2023/07/24 00:18:42;;;;;;;14.87;9.33;;;18.60;98.20;;;;;;5061660;28;20556;-62
2023/07/24 00:21:10;;;;;;;8.23;6.10;;;18.60;98.20;;;;;;5063601;28;20474;-62
2023/07/24 00:23:38;;;;;;;16.80;10.83;;;18.60;98.50;;;;;;5075598;28;20486;-62
2023/07/24 00:26:05;;;;;;;12.17;6.27;;;18.40;98.60;;;;;;5071508;28;20476;-62
2023/07/24 00:28:33;;;;;;;11.80;7.80;;;18.50;98.50;;;;;;5037597;28;21025;-62
2023/07/24 00:31:00;;;;;;;10.57;5.70;;;18.40;99.00;;;;;;5036120;28;20619;-62
2023/07/24 00:33:26;;;;;;;10.40;7.43;;;18.40;98.70;;;;;;5069086;28;20481;-62
2023/07/24 00:35:57;;;;;;;12.40;9.00;;;18.50;98.70;;;;;;5072129;28;20912;-61
2023/07/24 00:38:24;;;;;;;10.93;6.63;;;18.50;98.40;;;;;;5055664;28;21127;-62
2023/07/24 00:40:52;;;;;;;8.50;6.90;;;18.60;98.50;;;;;;5074009;28;21569;-62
2023/07/24 00:43:19;;;;;;;10.80;8.20;;;18.60;98.20;;;;;;5078396;28;20485;-62
2023/07/24 00:45:47;;;;;;;14.30;10.70;;;18.60;98.20;;;;;;5073226;28;20871;-62
2023/07/24 00:48:14;;;;;;;8.83;6.87;;;18.60;98.10;;;;;;5074997;28;20961;-62
2023/07/24 00:50:43;;;;;;;17.73;10.20;;;18.70;98.30;;;;;;5073244;28;20511;-62
2023/07/24 00:53:11;;;;;;;10.23;7.23;;;20.20;98.90;;;;;;5060728;28;20482;-62
2023/07/24 00:55:38;;;;;;;12.37;8.60;;;18.80;98.40;;;;;;5042436;28;20505;-62
2023/07/24 00:58:07;;;;;;;8.27;6.63;;;18.70;98.20;;;;;;5080590;28;20519;-62
2023/07/24 01:00:34;;;;;;;13.33;8.80;;;18.80;98.50;;;;;;5073058;28;20478;-62
2023/07/24 01:03:01;;;;;;;8.30;6.43;;;18.70;98.50;;;;;;5060716;28;20988;-62
2023/07/24 01:05:28;;;;;;;12.33;7.60;;;18.70;98.80;;;;;;5029870;28;20950;-62
2023/07/24 01:07:55;;;;;;;7.70;5.73;;;18.60;98.90;;;;;;5057709;28;20468;-62
2023/07/24 01:10:22;;;;;;;9.23;7.13;;;18.30;99.50;;;;;;5073968;28;21039;-62
2023/07/24 01:12:58;;;;;;;14.00;9.17;;;18.30;99.70;;;;;;5079345;28;20472;-61
2023/07/24 01:15:32;;;;;;;13.80;7.93;;;18.20;99.50;;;;;;5070444;28;20476;-61
2023/07/24 01:18:01;;;;;;;9.43;7.53;;;18.20;99.60;;;;;;5074519;28;20554;-62
2023/07/24 01:20:30;;;;;;;10.90;7.77;;;18.20;99.40;;;;;;5077788;28;21145;-62
2023/07/24 01:23:19;;;;;;;8.93;6.63;;;18.20;99.60;;;;;;5055347;28;20925;-62
2023/07/24 01:26:06;;;;;;;15.70;11.10;;;18.00;99.90;;;;;;5059295;28;20474;-62
2023/07/24 01:28:32;;;;;;;13.20;9.10;;;17.90;99.90;;;;;;5076077;28;20458;-62
2023/07/24 01:30:59;;;;;;;15.57;8.00;;;17.90;99.90;;;;;;5075378;28;20595;-62
2023/07/24 01:33:27;;;;;;;10.47;7.07;;;18.10;99.90;;;;;;5076237;28;20844;-62
2023/07/24 01:35:55;;;;;;;14.43;9.17;;;18.10;99.90;;;;;;5074449;28;20809;-62
2023/07/24 01:38:25;;;;;;;11.70;8.07;;;18.40;99.90;;;;;;5074294;28;20487;-62
2023/07/24 01:40:54;;;;;;;10.40;7.37;;;18.40;99.90;;;;;;5043377;28;20477;-62
2023/07/24 01:43:23;;;;;;;10.70;7.50;;;18.50;99.60;;;;;;5072351;28;20476;-62
2023/07/24 01:45:50;;;;;;;14.10;9.97;;;18.60;99.20;;;;;;5057188;28;20481;-61
2023/07/24 01:48:17;;;;;;;10.20;7.27;;;18.60;99.20;;;;;;5065672;28;20478;-62
2023/07/24 01:50:44;;;;;;;12.03;8.20;;;18.70;99.40;;;;;;5069690;28;20486;-62
2023/07/24 01:53:10;;;;;;;8.00;5.80;;;18.70;99.10;;;;;;5071631;28;20476;-62
2023/07/24 01:55:37;;;;;;;26.50;10.87;;;18.70;98.80;;;;;;5055685;28;20485;-62
2023/07/24 01:58:04;;;;;;;9.83;7.00;;;18.70;98.70;;;;;;5061363;28;20478;-62
2023/07/24 02:00:32;;;;;;;8.40;6.07;;;18.70;98.80;;;;;;5067641;28;20505;-62
2023/07/24 02:02:59;;;;;;;9.43;7.33;;;18.80;98.90;;;;;;5071729;28;20484;-62
2023/07/24 02:05:27;;;;;;;12.33;6.60;;;18.70;99.30;;;;;;5071420;28;20578;-61
2023/07/24 02:07:54;;;;;;;11.43;7.40;;;18.70;99.00;;;;;;5071438;28;20470;-62
2023/07/24 02:10:20;;;;;;;9.23;6.73;;;18.70;99.20;;;;;;5072521;28;20484;-62
2023/07/24 02:12:47;;;;;;;10.47;8.03;;;18.70;99.10;;;;;;5072308;28;20490;-62
2023/07/24 02:15:14;;;;;;;13.90;8.93;;;18.70;99.40;;;;;;5071162;28;20484;-62
2023/07/24 02:17:43;;;;;;;13.10;9.90;;;18.70;99.30;;;;;;5070354;28;20470;-62
2023/07/24 02:20:10;;;;;;;8.00;5.33;;;18.70;99.30;;;;;;5054894;28;20799;-62
2023/07/24 02:22:37;;;;;;;13.13;9.43;;;18.60;99.70;;;;;;5059562;28;20493;-61
2023/07/24 02:25:04;;;;;;;12.77;8.27;;;18.60;99.60;;;;;;5047876;28;20485;-62
2023/07/24 02:27:34;;;;;;;9.47;7.17;;;18.60;99.90;;;;;;5056901;28;20481;-62
2023/07/24 02:30:01;;;;;;;9.70;7.03;;;18.60;99.60;;;;;;5069637;28;20478;-62
2023/07/24 02:32:28;;;;;;;8.67;6.40;;;18.70;99.50;;;;;;5056782;28;20808;-62
2023/07/24 02:34:56;;;;;;;9.87;6.23;;;18.70;99.50;;;;;;5060415;28;20580;-62
2023/07/24 02:37:23;;;;;;;10.27;7.13;;;18.70;99.90;;;;;;5073458;28;21002;-62
2023/07/24 02:39:50;;;;;;;11.60;7.20;;;18.70;99.60;;;;;;5062873;28;20903;-61
2023/07/24 02:42:17;;;;;;;9.60;6.70;;;18.70;99.60;;;;;;5075636;28;20974;-61
2023/07/24 02:44:44;;;;;;;11.73;8.53;;;18.70;99.40;;;;;;5074208;28;21057;-62
2023/07/24 02:47:11;;;;;;;11.10;7.77;;;18.70;99.50;;;;;;5075836;28;20547;-62
2023/07/24 02:49:37;;;;;;;14.27;10.40;;;18.70;99.40;;;;;;5072913;28;20854;-62
2023/07/24 02:52:06;;;;;;;10.30;6.43;;;18.80;99.40;;;;;;5076140;28;20478;-62
2023/07/24 02:54:33;;;;;;;16.47;9.97;;;18.70;99.60;;;;;;5073797;28;20882;-62
2023/07/24 02:57:00;;;;;;;13.90;8.40;;;18.50;99.70;;;;;;5071767;28;20472;-62
2023/07/24 02:59:27;;;;;;;13.43;6.77;;;18.60;99.90;;;;;;5074073;28;20823;-62
2023/07/24 03:01:54;;;;;;;8.20;6.17;;;18.50;99.90;;;;;;5074545;28;20496;-62
2023/07/24 03:04:21;;;;;;;12.57;6.97;;;18.50;99.70;;;;;;5073283;28;20865;-62
2023/07/24 03:06:47;;;;;;;11.83;8.17;;;18.60;99.60;;;;;;5072531;28;20477;-62
2023/07/24 03:09:16;;;;;;;9.40;7.10;;;18.50;99.90;;;;;;5076102;28;20474;-62
2023/07/24 03:11:42;;;;;;;15.10;9.33;;;18.40;99.90;;;;;;5073089;28;20506;-62
2023/07/24 03:14:10;;;;;;;8.67;6.23;;;18.40;99.90;;;;;;5074948;28;20474;-62
2023/07/24 03:16:37;;;;;;;13.03;9.17;;;18.40;99.90;;;;;;5073926;28;20478;-62
2023/07/24 03:19:03;;;;;;;9.90;7.83;;;19.50;99.90;;;;;;5076460;28;20832;-62
2023/07/24 03:21:30;;;;;;;10.10;7.53;;;18.40;99.90;;;;;;5055566;28;20484;-63
2023/07/24 03:23:57;;;;;;;8.80;6.23;;;18.10;99.90;;;;;;5075212;28;20497;-61
2023/07/24 03:26:25;;;;;;;12.53;7.27;;;18.10;99.90;;;;;;5057464;28;21149;-61
2023/07/24 03:28:52;;;;;;;10.93;7.10;;;18.10;99.90;;;;;;5073369;28;20496;-61
2023/07/24 03:31:19;;;;;;;12.20;6.90;;;18.00;99.90;;;;;;5063553;28;20470;-61
2023/07/24 03:33:46;;;;;;;12.13;8.10;;;17.90;99.90;;;;;;5075373;28;20470;-61
2023/07/24 03:36:13;;;;;;;9.07;6.10;;;17.90;99.90;;;;;;5052328;28;20874;-61
2023/07/24 03:38:39;;;;;;;15.27;10.33;;;17.90;99.90;;;;;;5046548;28;20509;-61
2023/07/24 03:41:06;;;;;;;9.30;6.60;;;17.90;99.90;;;;;;5073504;28;20486;-62
2023/07/24 03:43:36;;;;;;;10.70;8.23;;;17.90;99.90;;;;;;5073792;28;20619;-61
2023/07/24 03:46:04;;;;;;;14.80;7.40;;;17.60;99.90;;;;;;5064699;28;20864;-61
2023/07/24 03:48:31;;;;;;;9.33;7.17;;;17.70;99.90;;;;;;5075277;28;20476;-61
2023/07/24 03:51:02;;;;;;;10.50;7.57;;;16.20;99.90;;;;;;5074674;28;20482;-61
2023/07/24 03:53:28;;;;;;;15.10;8.27;;;17.80;99.90;;;;;;5067643;28;20470;-61
2023/07/24 03:55:55;;;;;;;12.53;8.00;;;17.80;99.90;;;;;;5073075;28;20472;-61
2023/07/24 03:58:22;;;;;;;12.80;7.97;;;17.70;99.90;;;;;;5036841;28;20478;-62
2023/07/24 04:00:51;;;;;;;12.33;8.40;;;17.70;99.90;;;;;;5039260;28;21007;-62
2023/07/24 04:03:18;;;;;;;10.50;7.33;;;17.70;99.90;;;;;;5046431;28;20491;-62
2023/07/24 04:05:45;;;;;;;17.07;10.23;;;17.80;99.90;;;;;;5061052;28;21558;-62
2023/07/24 04:08:12;;;;;;;10.30;7.90;;;17.90;99.90;;;;;;5076077;28;20481;-62
2023/07/24 04:10:38;;;;;;;14.47;10.40;;;17.90;99.90;;;;;;5043531;28;21029;-62
2023/07/24 04:13:05;;;;;;;10.87;7.40;;;17.90;99.90;;;;;;5075152;28;20474;-62
2023/07/24 04:15:32;;;;;;;16.37;9.27;;;17.90;99.90;;;;;;5049484;28;20481;-62
2023/07/24 04:18:00;;;;;;;13.30;8.23;;;18.00;99.90;;;;;;5060196;28;20485;-62
2023/07/24 04:20:27;;;;;;;10.03;6.90;;;18.10;99.90;;;;;;5063216;28;20482;-62
2023/07/24 04:22:54;;;;;;;10.07;7.77;;;18.10;99.90;;;;;;5050454;28;20469;-62
2023/07/24 04:25:21;;;;;;;11.50;8.10;;;18.20;99.90;;;;;;5073716;28;20478;-62
2023/07/24 04:27:48;;;;;;;16.23;9.43;;;18.20;99.90;;;;;;5040816;28;20939;-62
2023/07/24 04:30:15;;;;;;;10.60;7.07;;;18.30;99.90;;;;;;5064547;28;20568;-62
2023/07/24 04:32:42;;;;;;;19.00;11.87;;;17.30;99.90;;;;;;5071226;28;20482;-62
2023/07/24 04:35:10;;;;;;;9.77;7.60;;;18.30;99.90;;;;;;5069563;28;20484;-62
2023/07/24 04:37:37;;;;;;;24.80;11.13;;;18.30;99.90;;;;;;5071627;28;20916;-61
2023/07/24 04:40:05;;;;;;;11.30;7.03;;;18.20;99.90;;;;;;5049756;28;20561;-61
2023/07/24 04:42:32;;;;;;;10.60;7.60;;;18.10;99.90;;;;;;5056947;28;20482;-61
2023/07/24 04:44:58;;;;;;;10.10;7.17;;;18.20;99.90;;;;;;5057960;28;20512;-62
2023/07/24 04:47:25;;;;;;;13.97;7.50;;;18.30;99.90;;;;;;5050972;28;20482;-62
2023/07/24 04:49:52;;;;;;;10.50;7.30;;;18.30;99.90;;;;;;5057653;28;20510;-62
2023/07/24 04:52:20;;;;;;;7.10;4.97;;;18.40;99.90;;;;;;5059018;28;20636;-62
2023/07/24 04:54:47;;;;;;;8.70;6.23;;;18.40;99.90;;;;;;5048657;28;20486;-62
2023/07/24 04:57:14;;;;;;;11.57;6.10;;;18.40;99.90;;;;;;5046536;28;20923;-62
2023/07/24 04:59:41;;;;;;;8.50;5.90;;;18.40;99.90;;;;;;5051093;28;20482;-62
2023/07/24 05:02:08;;;;;;;8.60;6.53;;;18.30;99.90;;;;;;5052888;28;21026;-62
2023/07/24 05:04:35;;;;;;;13.17;9.20;;;18.20;99.90;;;;;;5046514;28;20563;-62
2023/07/24 05:07:02;;;;;;;8.03;6.30;;;18.10;99.90;;;;;;5064248;28;20838;-62
2023/07/24 05:09:30;;;;;;;9.73;7.23;;;18.10;99.90;;;;;;5054553;28;20477;-61
2023/07/24 05:11:57;;;;;;;12.33;8.20;;;18.00;99.90;;;;;;5049171;28;20802;-61
2023/07/24 05:14:23;;;;;;;8.10;6.80;;;18.10;99.90;;;;;;5039595;28;20871;-61
2023/07/24 05:16:50;;;;;;;11.17;8.03;;;18.10;99.90;;;;;;5038720;28;20789;-61
2023/07/24 05:19:17;;;;;;;13.67;6.30;;;18.20;99.90;;;;;;5070706;28;20484;-61
2023/07/24 05:21:44;;;;;;;12.67;7.97;;;18.30;99.90;;;;;;5071434;28;20467;-61
2023/07/24 05:24:11;;;;;;;8.63;5.63;;;18.40;99.90;;;;;;5039718;28;21244;-61
2023/07/24 05:26:39;;;;;;;11.23;7.53;;;18.50;99.90;;;;;;5064372;28;20895;-61
2023/07/24 05:29:06;;;;;;;6.73;5.20;;;18.50;99.90;;;;;;5047258;28;20483;-61
2023/07/24 05:31:35;;;;;;;8.53;6.33;;;17.80;99.90;;;;;;5066250;28;20473;-61
2023/07/24 05:34:03;;;;;;;10.40;6.60;;;18.50;99.90;;;;;;5072975;28;20468;-61
2023/07/24 05:36:30;;;;;;;6.13;5.13;;;18.40;99.90;;;;;;5071404;28;20474;-62
2023/07/24 05:38:57;;;;;;;11.40;6.50;;;18.40;99.90;;;;;;5072682;28;20595;-62
2023/07/24 05:41:24;;;;;;;6.40;5.60;;;18.50;99.90;;;;;;5053203;28;20475;-62
2023/07/24 05:43:53;;;;;;;13.50;5.90;;;18.70;99.90;;;;;;5035467;28;20466;-62
2023/07/24 05:46:20;;;;;;;4.97;4.40;;;18.80;99.90;;;;;;5061239;28;20533;-61
2023/07/24 05:48:47;;;;;;;6.70;5.40;;;18.80;99.90;;;;;;5053118;28;20916;-61
2023/07/24 05:51:14;;;;;;;22.37;6.33;;;19.00;99.90;;;;;;5062117;28;20488;-62
2023/07/24 05:53:41;;;;;;;7.37;5.23;;;19.10;99.90;;;;;;5057627;28;20919;-61
2023/07/24 05:56:07;;;;;;;8.07;4.97;;;19.10;99.90;;;;;;5044305;28;20481;-62
2023/07/24 05:58:34;;;;;;;10.70;6.47;;;19.20;99.90;;;;;;5055645;28;20482;-61
2023/07/24 06:01:03;;;;;;;9.00;7.30;;;19.30;99.90;;;;;;5073274;28;20572;-62
2023/07/24 06:03:30;;;;;;;9.27;7.07;;;19.30;99.90;;;;;;5067906;28;20863;-62
2023/07/24 06:05:57;;;;;;;8.80;6.93;;;19.40;99.90;;;;;;5069114;28;20561;-62
2023/07/24 06:08:23;;;;;;;11.27;6.43;;;19.50;99.90;;;;;;5049458;28;20485;-61
2023/07/24 06:10:51;;;;;;;11.50;8.33;;;19.50;99.90;;;;;;5062832;28;20474;-62
2023/07/24 06:13:18;;;;;;;9.20;7.53;;;19.50;99.90;;;;;;5056687;28;20236;-62
2023/07/24 06:15:45;;;;;;;18.70;10.43;;;19.50;99.90;;;;;;5051106;28;20469;-62
2023/07/24 06:18:13;;;;;;;13.50;8.07;;;19.60;99.90;;;;;;5049455;28;20550;-62
2023/07/24 06:20:40;;;;;;;17.00;11.20;;;19.80;99.90;;;;;;5056969;28;20844;-62
2023/07/24 06:23:07;;;;;;;11.23;8.90;;;19.80;99.90;;;;;;5069620;28;20489;-62
2023/07/24 06:25:34;;;;;;;14.23;11.00;;;19.90;99.90;;;;;;5067523;28;20642;-62
2023/07/24 06:28:01;;;;;;;11.27;9.60;;;20.00;99.90;;;;;;5062635;28;20554;-62
2023/07/24 06:30:28;;;;;;;12.60;10.23;;;20.10;99.90;;;;;;5063447;28;20485;-61
2023/07/24 06:32:55;;;;;;;19.40;9.77;;;20.40;99.90;;;;;;5063823;28;20485;-62
2023/07/24 06:35:23;;;;;;;11.23;9.10;;;20.70;99.90;;;;;;5061510;28;20568;-61
2023/07/24 06:37:50;;;;;;;12.33;10.00;;;20.80;99.90;;;;;;5028429;28;20479;-62
2023/07/24 06:40:17;;;;;;;16.30;10.83;;;21.10;99.90;;;;;;5072067;28;21005;-62
2023/07/24 06:42:46;;;;;;;13.40;10.50;;;21.30;99.90;;;;;;5051094;28;20728;-62
2023/07/24 06:45:12;;;;;;;12.40;8.97;;;21.40;99.90;;;;;;5044949;28;20483;-62
2023/07/24 06:47:39;;;;;;;11.27;9.17;;;21.60;99.90;;;;;;5020856;28;20493;-62
2023/07/24 06:50:07;;;;;;;10.13;7.87;;;21.80;99.90;;;;;;5056399;28;20484;-62
2023/07/24 06:52:36;;;;;;;13.00;9.70;;;22.00;99.90;;;;;;5051147;28;20687;-61
2023/07/24 06:55:03;;;;;;;8.53;7.50;;;22.10;99.90;;;;;;5050542;28;20509;-62
2023/07/24 06:57:30;;;;;;;8.53;7.17;;;22.20;99.40;;;;;;5067143;28;20487;-62
2023/07/24 06:59:56;;;;;;;10.20;8.37;;;22.50;99.80;;;;;;5041333;28;20466;-62
2023/07/24 07:02:24;;;;;;;9.07;7.97;;;22.10;99.10;;;;;;5050505;28;20473;-63
2023/07/24 07:04:50;;;;;;;15.07;7.90;;;22.20;99.20;;;;;;5061956;28;20916;-62
2023/07/24 07:07:17;;;;;;;7.27;6.50;;;22.20;98.90;;;;;;5067475;28;20852;-61
2023/07/24 07:09:45;;;;;;;10.37;8.13;;;22.30;98.80;;;;;;5071353;28;20866;-62
2023/07/24 07:12:12;;;;;;;9.20;7.80;;;22.30;98.70;;;;;;5042940;28;20838;-62
2023/07/24 07:14:39;;;;;;;12.20;8.80;;;22.20;98.20;;;;;;5040309;28;20690;-61
2023/07/24 07:17:06;;;;;;;7.77;7.00;;;22.20;98.00;;;;;;5055500;28;20503;-62
2023/07/24 07:19:33;;;;;;;8.17;7.37;;;22.10;98.10;;;;;;5050944;28;20486;-62
2023/07/24 07:22:00;;;;;;;10.13;8.17;;;22.00;98.80;;;;;;5045529;28;20490;-62
2023/07/24 07:24:26;;;;;;;12.87;7.57;;;22.00;98.60;;;;;;5065333;28;20888;-62
2023/07/24 07:26:55;;;;;;;14.40;7.57;;;22.00;98.30;;;;;;5062949;28;20839;-62
2023/07/24 07:29:21;;;;;;;7.67;6.63;;;22.00;98.50;;;;;;5070954;28;21213;-62
2023/07/24 07:31:48;;;;;;;8.40;7.53;;;22.10;98.90;;;;;;5046941;28;21015;-62
2023/07/24 07:34:15;;;;;;;9.37;7.47;;;22.10;99.00;;;;;;5040815;28;20850;-62
2023/07/24 07:36:42;;;;;;;10.33;8.13;;;22.20;99.10;;;;;;5044706;28;20467;-61
2023/07/24 07:39:09;;;;;;;17.00;6.80;;;22.30;98.80;;;;;;5070122;28;20484;-62
2023/07/24 07:41:36;;;;;;;12.03;7.77;;;22.50;97.80;;;;;;5059696;28;20487;-62
2023/07/24 07:44:04;;;;;;;9.67;6.67;;;22.70;97.80;;;;;;5054330;28;20484;-62
2023/07/24 07:46:30;;;;;;;8.40;6.37;;;22.70;97.40;;;;;;5033636;28;21279;-61
2023/07/24 07:48:57;;;;;;;7.20;5.80;;;22.70;97.70;;;;;;5062448;28;20556;-61
2023/07/24 07:51:25;;;;;;;6.20;5.60;;;22.80;97.80;;;;;;5041454;28;20595;-62
2023/07/24 07:53:52;;;;;;;10.70;5.40;;;22.80;98.10;;;;;;5058248;28;21031;-62
2023/07/24 07:56:19;;;;;;;7.37;6.57;;;22.70;97.80;;;;;;5059573;28;20488;-62
2023/07/24 07:58:46;;;;;;;12.90;7.17;;;22.80;96.70;;;;;;5046678;28;20471;-62
2023/07/24 08:01:14;;;;;;;7.10;6.23;;;22.80;97.60;;;;;;5067895;28;20474;-62
2023/07/24 08:03:41;;;;;;;9.13;7.07;;;22.80;97.10;;;;;;5042432;28;20496;-62
2023/07/24 08:06:08;;;;;;;7.37;6.57;;;22.80;97.10;;;;;;5054249;28;20480;-62
2023/07/24 08:08:35;;;;;;;8.60;7.43;;;23.80;97.50;;;;;;5053090;28;20478;-62
2023/07/24 08:11:05;;;;;;;7.80;5.33;;;23.00;97.10;;;;;;5049773;28;20508;-62
2023/07/24 08:13:32;;;;;;;7.03;6.20;;;23.00;96.50;;;;;;5062609;28;20555;-62
2023/07/24 08:16:02;;;;;;;6.47;5.83;;;23.10;97.00;;;;;;5042390;28;20482;-61
2023/07/24 08:18:30;;;;;;;7.47;6.43;;;23.10;96.10;;;;;;5054274;28;20482;-62
2023/07/24 08:20:57;;;;;;;8.57;5.93;;;23.10;95.40;;;;;;5025435;28;20478;-61
2023/07/24 08:23:24;;;;;;;11.60;6.40;;;23.00;95.10;;;;;;5051939;28;20489;-62
2023/07/24 08:25:54;;;;;;;7.90;6.20;;;22.90;95.00;;;;;;5040937;28;20457;-63
2023/07/24 08:28:21;;;;;;;7.13;6.33;;;23.00;96.50;;;;;;5060814;28;21017;-62
2023/07/24 08:30:56;;;;;;;7.73;6.93;;;22.90;95.70;;;;;;5068650;28;20475;-62
2023/07/24 08:33:23;;;;;;;6.47;5.63;;;22.90;95.40;;;;;;5039171;28;20620;-62
2023/07/24 08:36:00;;;;;;;7.20;6.50;;;22.70;94.90;;;;;;5054703;28;20480;-62
2023/07/24 08:38:27;;;;;;;6.80;5.93;;;22.80;95.70;;;;;;5026553;28;20512;-62
2023/07/24 08:41:04;;;;;;;12.57;6.63;;;22.90;96.50;;;;;;5066647;28;21053;-62
2023/07/24 08:43:32;;;;;;;9.60;6.70;;;22.90;95.90;;;;;;5009399;28;20479;-62
2023/07/24 08:46:01;;;;;;;6.50;5.90;;;23.00;96.30;;;;;;5059759;28;20493;-62
2023/07/24 08:48:33;;;;;;;8.90;5.60;;;23.10;95.70;;;;;;5045366;28;21103;-62
2023/07/24 08:51:02;;;;;;;8.57;6.13;;;23.00;95.70;;;;;;5034871;28;20588;-62
2023/07/24 08:53:30;;;;;;;14.53;7.03;;;20.60;94.30;;;;;;5069058;28;20470;-62
2023/07/24 08:55:57;;;;;;;9.43;7.07;;;22.90;95.90;;;;;;5056139;28;20481;-62
2023/07/24 08:58:24;;;;;;;8.70;6.73;;;23.00;96.00;;;;;;5067233;28;20478;-62
2023/07/24 09:00:52;;;;;;;7.80;6.70;;;22.90;96.50;;;;;;5066087;28;20473;-62
2023/07/24 09:03:19;;;;;;;9.33;7.87;;;22.90;96.30;;;;;;5053861;28;24989;-62
2023/07/24 09:05:46;;;;;;;15.70;9.27;;;22.90;97.70;;;;;;5058045;28;20485;-62
2023/07/24 09:08:14;;;;;;;7.10;6.40;;;22.80;97.20;;;;;;5059970;28;20513;-62
2023/07/24 09:10:44;;;;;;;10.33;9.33;;;22.70;97.30;;;;;;5050884;28;20707;-62
2023/07/24 09:13:13;;;;;;;9.83;8.40;;;22.70;97.70;;;;;;5041419;28;20887;-62
2023/07/24 09:15:43;;;;;;;10.40;8.57;;;22.60;97.40;;;;;;5066605;28;20474;-62
2023/07/24 09:18:11;;;;;;;7.73;6.90;;;22.50;97.50;;;;;;5062723;28;20496;-61
2023/07/24 09:20:43;;;;;;;12.20;9.40;;;22.50;97.20;;;;;;5056215;28;21134;-62
2023/07/24 09:23:11;;;;;;;11.67;7.23;;;22.50;97.20;;;;;;5050585;28;20561;-62
2023/07/24 09:25:40;;;;;;;9.63;8.73;;;22.50;97.80;;;;;;5044951;28;20486;-62
2023/07/24 09:28:11;;;;;;;10.83;7.37;;;22.50;97.40;;;;;;5072549;28;20482;-63
2023/07/24 09:30:38;;;;;;;13.20;9.93;;;22.60;97.50;;;;;;5064543;28;20474;-63
2023/07/24 09:33:05;;;;;;;8.03;7.23;;;22.70;97.90;;;;;;5059060;28;20992;-62
2023/07/24 09:35:32;;;;;;;9.43;8.37;;;22.50;97.30;;;;;;5040726;28;20708;-62
2023/07/24 09:38:06;;;;;;;9.40;5.90;;;22.50;97.30;;;;;;5043371;28;20483;-63
2023/07/24 09:40:41;;;;;;;8.63;7.30;;;22.40;97.60;;;;;;5015483;28;20490;-62
2023/07/24 09:43:19;;;;;;;9.40;8.20;;;22.40;97.40;;;;;;5047865;28;20486;-62
2023/07/24 09:45:48;;;;;;;10.87;8.97;;;22.60;97.60;;;;;;5070787;28;20536;-63
2023/07/24 09:48:17;;;;;;;11.50;7.10;;;22.60;98.10;;;;;;5052611;28;20811;-62
2023/07/24 09:50:47;;;;;;;10.83;9.60;;;22.70;98.20;;;;;;5041924;28;20471;-62
2023/07/24 09:53:19;;;;;;;15.67;9.20;;;22.80;98.30;;;;;;5051496;28;20482;-63
2023/07/24 09:55:53;;;;;;;9.93;8.93;;;22.80;98.30;;;;;;5039273;28;20484;-62
2023/07/24 09:58:21;;;;;;;15.07;7.47;;;22.90;98.30;;;;;;5007829;28;20484;-62
2023/07/24 10:00:50;;;;;;;10.20;9.20;;;23.00;98.00;;;;;;5065026;28;20475;-61
2023/07/24 10:03:20;;;;;;;10.40;8.30;;;23.00;97.70;;;;;;5075792;28;21045;-61
2023/07/24 10:05:47;;;;;;;12.07;8.93;;;22.90;98.10;;;;;;5055775;28;20492;-61
2023/07/24 10:08:16;;;;;;;8.93;7.60;;;23.00;98.60;;;;;;5051294;28;20924;-61
2023/07/24 10:10:43;;;;;;;12.83;9.30;;;23.00;98.20;;;;;;5076780;28;20488;-62
2023/07/24 10:13:14;;;;;;;13.30;8.47;;;23.00;98.40;;;;;;5060668;28;20553;-62
2023/07/24 10:15:41;;;;;;;10.80;8.80;;;23.00;98.10;;;;;;5039793;28;20474;-62
2023/07/24 10:18:09;;;;;;;8.80;7.90;;;23.10;97.80;;;;;;5033212;28;20482;-62
2023/07/24 10:20:38;;;;;;;11.37;10.17;;;23.10;98.30;;;;;;5051244;28;20876;-64
2023/07/24 10:23:06;;;;;;;10.60;7.93;;;23.10;98.20;;;;;;5055070;28;20487;-62
2023/07/24 10:25:34;;;;;;;10.73;7.27;;;23.10;98.30;;;;;;5068911;28;20637;-61
2023/07/24 10:28:07;;;;;;;9.53;7.00;;;23.10;98.90;;;;;;5028086;28;20458;-62
2023/07/24 10:30:36;;;;;;;10.30;7.67;;;23.10;98.30;;;;;;5057379;28;20470;-62
2023/07/24 10:33:11;;;;;;;8.60;7.70;;;23.20;98.40;;;;;;5051436;28;20474;-62
2023/07/24 10:35:39;;;;;;;13.40;10.30;;;23.10;98.30;;;;;;5055026;28;20508;-62
2023/07/24 10:38:06;;;;;;;7.70;6.90;;;23.10;98.70;;;;;;5045180;28;20714;-62
2023/07/24 10:40:34;;;;;;;10.60;6.97;;;23.10;99.30;;;;;;5023188;28;20884;-61
2023/07/24 10:43:05;;;;;;;10.80;7.97;;;22.90;98.90;;;;;;5030310;28;20478;-62
2023/07/24 10:45:49;;;;;;;15.70;9.27;;;22.90;99.30;;;;;;5053846;28;20845;-62
2023/07/24 10:48:16;;;;;;;9.37;8.20;;;22.90;99.90;;;;;;5050081;28;21470;-62
2023/07/24 10:50:44;;;;;;;11.07;9.33;;;23.00;99.90;;;;;;5041712;28;20516;-61
2023/07/24 10:53:12;;;;;;;14.17;9.00;;;22.90;99.90;;;;;;5028218;28;21091;-62
2023/07/24 10:55:39;;;;;;;13.20;11.37;;;23.00;99.90;;;;;;5067115;28;20456;-62
2023/07/24 10:58:07;;;;;;;11.47;9.20;;;23.10;99.90;;;;;;5071496;28;20493;-61
2023/07/24 11:00:34;;;;;;;10.97;9.83;;;23.30;99.90;;;;;;5048177;28;20486;-62
2023/07/24 11:03:02;;;;;;;15.87;9.53;;;23.40;99.90;;;;;;5028230;28;20949;-62
2023/07/24 11:05:29;;;;;;;11.00;8.80;;;23.30;99.90;;;;;;5043642;28;20991;-62
2023/07/24 11:07:56;;;;;;;12.60;9.33;;;23.30;99.90;;;;;;5056126;28;20477;-62
2023/07/24 11:10:25;;;;;;;11.80;10.43;;;23.30;99.90;;;;;;5070171;28;20461;-62
2023/07/24 11:12:53;;;;;;;12.20;10.10;;;23.20;99.90;;;;;;5061113;28;20459;-62
2023/07/24 11:15:27;;;;;;;11.80;10.50;;;23.10;99.90;;;;;;5070588;28;20483;-62
2023/07/24 11:17:55;;;;;;;11.73;10.50;;;23.10;99.90;;;;;;5061716;28;20853;-62
2023/07/24 11:20:23;;;;;;;12.20;10.90;;;23.00;99.90;;;;;;5045646;28;20495;-62
2023/07/24 11:22:50;;;;;;;15.17;12.00;;;23.00;99.90;;;;;;5051732;28;20467;-62
2023/07/24 11:25:18;;;;;;;12.90;10.80;;;23.00;99.90;;;;;;5041722;28;21075;-61
2023/07/24 11:27:47;;;;;;;15.83;12.43;;;22.80;99.90;;;;;;5051867;28;20482;-62
2023/07/24 11:30:20;;;;;;;18.43;12.70;;;22.80;99.90;;;;;;5057276;28;20560;-62
2023/07/24 11:32:47;;;;;;;13.90;12.40;;;23.00;99.90;;;;;;5045324;28;20477;-63
2023/07/24 11:35:14;;;;;;;13.30;11.90;;;23.30;99.90;;;;;;5045585;28;20483;-62
2023/07/24 11:37:43;;;;;;;13.67;12.30;;;23.30;99.90;;;;;;5057822;28;21011;-62
2023/07/24 11:40:12;;;;;;;13.40;10.57;;;23.60;99.90;;;;;;5041448;28;20514;-62
2023/07/24 11:42:40;;;;;;;19.00;11.40;;;23.90;99.90;;;;;;5045654;28;20482;-62
2023/07/24 11:45:09;;;;;;;11.10;9.73;;;24.10;99.90;;;;;;5044579;28;20486;-63
2023/07/24 11:47:46;;;;;;;13.73;10.93;;;23.70;99.90;;;;;;5071873;28;20455;-63
2023/07/24 11:50:14;;;;;;;10.27;9.27;;;23.90;99.90;;;;;;5063466;28;20459;-63
2023/07/24 11:52:44;;;;;;;12.87;11.53;;;23.90;99.90;;;;;;5068672;28;20646;-62
2023/07/24 11:55:12;;;;;;;13.37;9.80;;;24.00;99.90;;;;;;5040849;28;20717;-62
2023/07/24 11:57:39;;;;;;;13.37;11.67;;;24.00;99.90;;;;;;5058950;28;20850;-62
2023/07/24 12:00:09;;;;;;;10.27;9.27;;;24.10;99.90;;;;;;5067151;28;20834;-62
2023/07/24 12:02:36;;;;;;;13.17;11.10;;;24.00;99.90;;;;;;5037066;28;20891;-63
2023/07/24 12:05:06;;;;;;;12.57;10.20;;;23.70;99.90;;;;;;5070592;28;20454;-63
2023/07/24 12:07:35;;;;;;;15.47;11.30;;;23.60;99.90;;;;;;5073135;28;20970;-61
2023/07/24 12:10:07;;;;;;;13.20;10.20;;;23.70;99.90;;;;;;5056392;28;20915;-63
2023/07/24 12:12:45;;;;;;;12.60;11.30;;;21.90;99.90;;;;;;5047984;28;20771;-62
2023/07/24 12:15:12;;;;;;;15.00;11.10;;;23.70;99.90;;;;;;5073740;28;20489;-62
2023/07/24 12:17:40;;;;;;;11.93;9.80;;;23.70;99.90;;;;;;5073788;28;20483;-61
2023/07/24 12:20:10;;;;;;;12.27;10.40;;;23.70;99.90;;;;;;5049716;28;20522;-62
2023/07/24 12:22:37;;;;;;;14.63;12.67;;;23.70;99.90;;;;;;5038920;28;20533;-62
2023/07/24 12:25:07;;;;;;;12.23;10.37;;;23.60;99.90;;;;;;5056141;28;21117;-63
2023/07/24 12:27:34;;;;;;;13.30;11.90;;;23.40;99.90;;;;;;5066404;28;20478;-63
2023/07/24 12:30:01;;;;;;;13.50;10.10;;;23.30;99.90;;;;;;5042774;28;20483;-62
2023/07/24 12:32:28;;;;;;;13.53;11.23;;;23.20;99.90;;;;;;5043753;28;20484;-62
2023/07/24 12:34:55;;;;;;;15.33;10.93;;;23.30;99.90;;;;;;5060438;28;20477;-63
2023/07/24 12:37:22;;;;;;;19.70;12.23;;;23.40;99.90;;;;;;5020167;28;21475;-62
2023/07/24 12:39:50;;;;;;;14.43;10.20;;;23.30;99.90;;;;;;5071842;28;21197;-63
2023/07/24 12:42:18;;;;;;;14.90;11.03;;;23.20;99.90;;;;;;5072569;28;20482;-63